sensor_id;sensor_type;location;lat;lon;timestamp;P1;P2;P0
45700;PMS5003;36277;32.852;-116.998;2022-12-05T00:01:21;1.00;1.00;1.00
45700;PMS5003;36277;32.852;-116.998;2022-12-05T00:03:49;0.40;0.40;0.40
45700;PMS5003;36277;32.852;-116.998;2022-12-05T00:06:17;1.00;1.00;1.00
45700;PMS5003;36277;32.852;-116.998;2022-12-05T00:08:44;1.00;1.00;1.00
45700;PMS5003;36277;32.852;-116.998;2022-12-05T00:11:15;1.00;1.00;1.00
45700;PMS5003;36277;32.852;-116.998;2022-12-05T00:13:43;1.00;1.00;1.00
45700;PMS5003;36277;32.852;-116.998;2022-12-05T00:16:11;0.20;0.20;0.20
45700;PMS5003;36277;32.852;-116.998;2022-12-05T00:18:39;0.40;0.40;0.40
45700;PMS5003;36277;32.852;-116.998;2022-12-05T00:21:06;1.00;1.00;1.00
45700;PMS5003;36277;32.852;-116.998;2022-12-05T00:23:38;0.00;0.00;0.00
45700;PMS5003;36277;32.852;-116.998;2022-12-05T00:26:04;0.00;0.00;0.00
45700;PMS5003;36277;32.852;-116.998;2022-12-05T00:28:32;0.40;0.40;0.00
45700;PMS5003;36277;32.852;-116.998;2022-12-05T00:31:09;2.00;2.00;1.00
45700;PMS5003;36277;32.852;-116.998;2022-12-05T00:33:37;1.20;1.20;1.00
45700;PMS5003;36277;32.852;-116.998;2022-12-05T00:36:07;1.00;1.00;1.00
45700;PMS5003;36277;32.852;-116.998;2022-12-05T00:38:45;1.60;1.60;1.00
45700;PMS5003;36277;32.852;-116.998;2022-12-05T00:41:13;0.80;0.80;0.20
45700;PMS5003;36277;32.852;-116.998;2022-12-05T00:43:43;1.00;1.00;1.00
45700;PMS5003;36277;32.852;-116.998;2022-12-05T00:46:11;2.00;2.00;1.80
45700;PMS5003;36277;32.852;-116.998;2022-12-05T00:48:39;1.20;1.20;1.00
45700;PMS5003;36277;32.852;-116.998;2022-12-05T00:51:08;0.40;0.40;0.40
45700;PMS5003;36277;32.852;-116.998;2022-12-05T00:53:36;0.40;0.40;0.20
45700;PMS5003;36277;32.852;-116.998;2022-12-05T00:56:04;0.40;0.40;0.40
45700;PMS5003;36277;32.852;-116.998;2022-12-05T00:58:36;0.80;0.80;0.40
45700;PMS5003;36277;32.852;-116.998;2022-12-05T01:01:06;1.00;1.00;1.00
45700;PMS5003;36277;32.852;-116.998;2022-12-05T01:03:37;0.40;0.40;0.40
45700;PMS5003;36277;32.852;-116.998;2022-12-05T01:06:05;0.60;0.60;0.40
45700;PMS5003;36277;32.852;-116.998;2022-12-05T01:08:32;0.40;0.40;0.40
45700;PMS5003;36277;32.852;-116.998;2022-12-05T01:10:59;0.80;0.80;0.40
45700;PMS5003;36277;32.852;-116.998;2022-12-05T01:13:26;1.20;1.20;1.00
45700;PMS5003;36277;32.852;-116.998;2022-12-05T01:15:53;0.00;0.00;0.00
45700;PMS5003;36277;32.852;-116.998;2022-12-05T01:18:20;0.40;0.40;0.20
45700;PMS5003;36277;32.852;-116.998;2022-12-05T01:20:47;0.40;0.40;0.40
45700;PMS5003;36277;32.852;-116.998;2022-12-05T01:23:14;0.60;0.60;0.00
45700;PMS5003;36277;32.852;-116.998;2022-12-05T01:25:41;0.20;0.20;0.20
45700;PMS5003;36277;32.852;-116.998;2022-12-05T01:28:08;0.40;0.40;0.40
45700;PMS5003;36277;32.852;-116.998;2022-12-05T01:30:39;0.40;0.40;0.40
45700;PMS5003;36277;32.852;-116.998;2022-12-05T01:33:06;2.00;2.00;1.60
45700;PMS5003;36277;32.852;-116.998;2022-12-05T01:35:34;1.00;1.00;0.60
45700;PMS5003;36277;32.852;-116.998;2022-12-05T01:38:02;1.40;1.40;1.00
45700;PMS5003;36277;32.852;-116.998;2022-12-05T01:40:28;0.40;0.40;0.40
45700;PMS5003;36277;32.852;-116.998;2022-12-05T01:42:56;1.00;1.00;0.60
45700;PMS5003;36277;32.852;-116.998;2022-12-05T01:48:00;0.80;0.80;0.80
45700;PMS5003;36277;32.852;-116.998;2022-12-05T01:50:31;0.20;0.20;0.20
45700;PMS5003;36277;32.852;-116.998;2022-12-05T01:52:58;0.80;0.80;0.80
45700;PMS5003;36277;32.852;-116.998;2022-12-05T01:55:26;0.40;0.40;0.40
45700;PMS5003;36277;32.852;-116.998;2022-12-05T01:57:52;0.40;0.40;0.40
45700;PMS5003;36277;32.852;-116.998;2022-12-05T02:00:21;2.00;2.00;1.00
45700;PMS5003;36277;32.852;-116.998;2022-12-05T02:02:51;1.20;1.20;0.60
45700;PMS5003;36277;32.852;-116.998;2022-12-05T02:05:24;0.40;0.40;0.20
45700;PMS5003;36277;32.852;-116.998;2022-12-05T02:07:57;1.00;1.00;1.00
45700;PMS5003;36277;32.852;-116.998;2022-12-05T02:10:26;1.40;1.40;1.00
45700;PMS5003;36277;32.852;-116.998;2022-12-05T02:12:55;0.40;0.40;0.40
45700;PMS5003;36277;32.852;-116.998;2022-12-05T02:27:35;2.00;2.00;1.40
45700;PMS5003;36277;32.852;-116.998;2022-12-05T02:30:08;1.60;1.60;0.60
45700;PMS5003;36277;32.852;-116.998;2022-12-05T02:44:13;2.00;2.00;1.60
45700;PMS5003;36277;32.852;-116.998;2022-12-05T02:46:58;2.00;2.00;2.00
45700;PMS5003;36277;32.852;-116.998;2022-12-05T02:49:27;2.00;2.00;1.80
45700;PMS5003;36277;32.852;-116.998;2022-12-05T02:51:58;1.80;1.80;1.00
45700;PMS5003;36277;32.852;-116.998;2022-12-05T02:54:29;2.00;2.00;2.00
45700;PMS5003;36277;32.852;-116.998;2022-12-05T02:57:08;1.80;1.80;1.60
45700;PMS5003;36277;32.852;-116.998;2022-12-05T02:59:36;3.00;3.00;2.00
45700;PMS5003;36277;32.852;-116.998;2022-12-05T03:02:02;1.40;1.40;1.40
45700;PMS5003;36277;32.852;-116.998;2022-12-05T03:04:29;1.00;1.00;0.80
45700;PMS5003;36277;32.852;-116.998;2022-12-05T03:07:02;2.60;2.60;2.00
45700;PMS5003;36277;32.852;-116.998;2022-12-05T03:09:40;1.60;1.60;1.00
45700;PMS5003;36277;32.852;-116.998;2022-12-05T03:12:13;1.00;1.00;1.00
45700;PMS5003;36277;32.852;-116.998;2022-12-05T03:14:50;1.20;1.20;0.40
45700;PMS5003;36277;32.852;-116.998;2022-12-05T03:17:24;2.00;2.00;1.20
45700;PMS5003;36277;32.852;-116.998;2022-12-05T03:22:35;2.00;2.00;2.00
45700;PMS5003;36277;32.852;-116.998;2022-12-05T03:25:03;2.00;2.00;2.00
45700;PMS5003;36277;32.852;-116.998;2022-12-05T03:27:36;1.60;1.60;1.40
45700;PMS5003;36277;32.852;-116.998;2022-12-05T03:30:12;2.00;2.00;1.80
45700;PMS5003;36277;32.852;-116.998;2022-12-05T03:32:44;0.40;0.40;0.40
45700;PMS5003;36277;32.852;-116.998;2022-12-05T03:38:10;2.00;2.00;2.00
45700;PMS5003;36277;32.852;-116.998;2022-12-05T03:40:52;2.00;2.00;1.80
45700;PMS5003;36277;32.852;-116.998;2022-12-05T03:51:38;2.20;2.20;1.20
45700;PMS5003;36277;32.852;-116.998;2022-12-05T03:54:15;2.00;2.00;2.00
45700;PMS5003;36277;32.852;-116.998;2022-12-05T03:57:22;1.20;1.20;1.20
45700;PMS5003;36277;32.852;-116.998;2022-12-05T04:00:22;1.00;1.00;1.00
45700;PMS5003;36277;32.852;-116.998;2022-12-05T04:08:35;2.60;2.60;1.80
45700;PMS5003;36277;32.852;-116.998;2022-12-05T04:11:12;2.80;2.80;2.00
45700;PMS5003;36277;32.852;-116.998;2022-12-05T04:13:48;1.20;1.20;1.00
45700;PMS5003;36277;32.852;-116.998;2022-12-05T04:16:28;3.00;3.00;2.20
45700;PMS5003;36277;32.852;-116.998;2022-12-05T04:19:18;2.40;2.40;2.20
45700;PMS5003;36277;32.852;-116.998;2022-12-05T04:21:53;2.00;2.00;2.00
45700;PMS5003;36277;32.852;-116.998;2022-12-05T04:24:24;2.00;2.00;1.80
45700;PMS5003;36277;32.852;-116.998;2022-12-05T04:29:56;2.00;2.00;2.00
45700;PMS5003;36277;32.852;-116.998;2022-12-05T04:32:37;2.00;2.00;2.00
45700;PMS5003;36277;32.852;-116.998;2022-12-05T04:35:14;2.40;2.40;2.00
45700;PMS5003;36277;32.852;-116.998;2022-12-05T04:37:52;1.60;1.60;1.40
45700;PMS5003;36277;32.852;-116.998;2022-12-05T04:40:27;2.00;2.00;2.00
45700;PMS5003;36277;32.852;-116.998;2022-12-05T04:43:00;2.00;2.00;1.80
45700;PMS5003;36277;32.852;-116.998;2022-12-05T04:45:28;1.60;1.60;1.00
45700;PMS5003;36277;32.852;-116.998;2022-12-05T04:47:58;0.00;0.00;0.00
45700;PMS5003;36277;32.852;-116.998;2022-12-05T04:50:31;2.20;2.20;2.00
45700;PMS5003;36277;32.852;-116.998;2022-12-05T04:52:59;3.00;3.00;2.80
45700;PMS5003;36277;32.852;-116.998;2022-12-05T04:55:27;2.20;2.20;2.20
45700;PMS5003;36277;32.852;-116.998;2022-12-05T04:58:19;1.40;1.40;1.00
45700;PMS5003;36277;32.852;-116.998;2022-12-05T05:06:00;1.60;1.60;1.00
45700;PMS5003;36277;32.852;-116.998;2022-12-05T05:08:28;2.00;2.00;1.80
45700;PMS5003;36277;32.852;-116.998;2022-12-05T05:11:13;3.00;3.00;3.00
45700;PMS5003;36277;32.852;-116.998;2022-12-05T05:13:43;2.00;2.00;2.00
45700;PMS5003;36277;32.852;-116.998;2022-12-05T05:16:16;1.60;1.60;1.40
45700;PMS5003;36277;32.852;-116.998;2022-12-05T05:19:11;0.60;0.60;0.00
45700;PMS5003;36277;32.852;-116.998;2022-12-05T05:21:38;1.00;1.00;1.00
45700;PMS5003;36277;32.852;-116.998;2022-12-05T05:24:07;2.40;2.40;1.80
45700;PMS5003;36277;32.852;-116.998;2022-12-05T05:26:37;2.40;2.40;2.40
45700;PMS5003;36277;32.852;-116.998;2022-12-05T05:29:07;2.00;2.00;2.00
45700;PMS5003;36277;32.852;-116.998;2022-12-05T05:31:34;2.00;2.00;2.00
45700;PMS5003;36277;32.852;-116.998;2022-12-05T05:34:01;2.60;2.60;2.60
45700;PMS5003;36277;32.852;-116.998;2022-12-05T05:36:28;2.00;2.00;1.80
45700;PMS5003;36277;32.852;-116.998;2022-12-05T05:38:57;2.00;2.00;1.40
45700;PMS5003;36277;32.852;-116.998;2022-12-05T05:41:28;2.40;2.40;2.20
45700;PMS5003;36277;32.852;-116.998;2022-12-05T05:43:57;1.40;1.40;1.40
45700;PMS5003;36277;32.852;-116.998;2022-12-05T05:46:25;1.80;1.80;1.00
45700;PMS5003;36277;32.852;-116.998;2022-12-05T05:48:53;3.00;3.00;3.00
45700;PMS5003;36277;32.852;-116.998;2022-12-05T05:51:20;3.80;3.80;3.00
45700;PMS5003;36277;32.852;-116.998;2022-12-05T05:53:50;2.60;2.60;2.00
45700;PMS5003;36277;32.852;-116.998;2022-12-05T05:56:17;2.20;2.20;2.00
45700;PMS5003;36277;32.852;-116.998;2022-12-05T05:58:45;2.00;2.00;2.00
45700;PMS5003;36277;32.852;-116.998;2022-12-05T06:01:13;1.00;1.00;1.00
45700;PMS5003;36277;32.852;-116.998;2022-12-05T06:03:41;2.60;2.60;2.40
45700;PMS5003;36277;32.852;-116.998;2022-12-05T06:06:09;3.00;3.00;2.60
45700;PMS5003;36277;32.852;-116.998;2022-12-05T06:08:38;2.40;2.40;2.00
45700;PMS5003;36277;32.852;-116.998;2022-12-05T06:13:35;3.00;3.00;2.00
45700;PMS5003;36277;32.852;-116.998;2022-12-05T06:16:03;3.00;3.00;2.00
45700;PMS5003;36277;32.852;-116.998;2022-12-05T06:18:34;3.40;3.40;3.00
45700;PMS5003;36277;32.852;-116.998;2022-12-05T06:21:01;3.40;3.40;3.00
45700;PMS5003;36277;32.852;-116.998;2022-12-05T06:23:28;1.80;1.80;1.60
45700;PMS5003;36277;32.852;-116.998;2022-12-05T06:25:55;3.00;3.00;3.00
45700;PMS5003;36277;32.852;-116.998;2022-12-05T06:28:22;2.60;2.60;2.00
45700;PMS5003;36277;32.852;-116.998;2022-12-05T06:30:49;2.80;2.80;2.60
45700;PMS5003;36277;32.852;-116.998;2022-12-05T06:33:16;3.00;3.00;3.00
45700;PMS5003;36277;32.852;-116.998;2022-12-05T06:35:43;4.00;4.00;4.00
45700;PMS5003;36277;32.852;-116.998;2022-12-05T06:38:10;4.00;4.00;3.60
45700;PMS5003;36277;32.852;-116.998;2022-12-05T06:40:43;3.00;3.00;2.80
45700;PMS5003;36277;32.852;-116.998;2022-12-05T06:43:10;3.60;3.60;3.00
45700;PMS5003;36277;32.852;-116.998;2022-12-05T06:45:37;4.00;4.00;3.80
45700;PMS5003;36277;32.852;-116.998;2022-12-05T06:48:03;3.20;3.20;3.00
45700;PMS5003;36277;32.852;-116.998;2022-12-05T06:50:29;3.60;3.60;3.00
45700;PMS5003;36277;32.852;-116.998;2022-12-05T06:52:56;3.00;3.00;3.00
45700;PMS5003;36277;32.852;-116.998;2022-12-05T06:55:22;3.60;3.60;3.00
45700;PMS5003;36277;32.852;-116.998;2022-12-05T06:57:48;3.00;3.00;2.60
45700;PMS5003;36277;32.852;-116.998;2022-12-05T07:00:14;3.00;3.00;2.00
45700;PMS5003;36277;32.852;-116.998;2022-12-05T07:02:59;2.00;2.00;2.00
45700;PMS5003;36277;32.852;-116.998;2022-12-05T07:05:25;3.00;3.00;3.00
45700;PMS5003;36277;32.852;-116.998;2022-12-05T07:07:52;2.60;2.60;2.40
45700;PMS5003;36277;32.852;-116.998;2022-12-05T07:10:18;2.80;2.80;2.80
45700;PMS5003;36277;32.852;-116.998;2022-12-05T07:12:44;3.00;3.00;2.80
45700;PMS5003;36277;32.852;-116.998;2022-12-05T07:15:10;3.00;3.00;3.00
45700;PMS5003;36277;32.852;-116.998;2022-12-05T07:17:37;3.80;3.80;3.00
45700;PMS5003;36277;32.852;-116.998;2022-12-05T07:20:06;3.00;3.00;2.20
45700;PMS5003;36277;32.852;-116.998;2022-12-05T07:22:35;1.00;1.00;1.00
45700;PMS5003;36277;32.852;-116.998;2022-12-05T07:25:02;2.00;2.00;1.80
45700;PMS5003;36277;32.852;-116.998;2022-12-05T07:27:28;4.20;4.20;3.80
45700;PMS5003;36277;32.852;-116.998;2022-12-05T07:29:55;3.00;3.00;3.00
45700;PMS5003;36277;32.852;-116.998;2022-12-05T07:32:21;2.40;2.40;2.00
45700;PMS5003;36277;32.852;-116.998;2022-12-05T07:34:48;2.60;2.60;2.60
45700;PMS5003;36277;32.852;-116.998;2022-12-05T07:37:14;1.60;1.60;1.20
45700;PMS5003;36277;32.852;-116.998;2022-12-05T07:39:40;3.00;3.00;3.00
45700;PMS5003;36277;32.852;-116.998;2022-12-05T07:42:06;2.00;2.00;2.00
45700;PMS5003;36277;32.852;-116.998;2022-12-05T07:44:33;2.60;2.60;2.00
45700;PMS5003;36277;32.852;-116.998;2022-12-05T07:46:59;3.00;3.00;3.00
45700;PMS5003;36277;32.852;-116.998;2022-12-05T07:49:25;2.00;2.00;2.00
45700;PMS5003;36277;32.852;-116.998;2022-12-05T07:51:51;2.00;2.00;1.00
45700;PMS5003;36277;32.852;-116.998;2022-12-05T07:54:18;3.60;3.60;3.00
45700;PMS5003;36277;32.852;-116.998;2022-12-05T07:56:44;2.00;2.00;2.00
45700;PMS5003;36277;32.852;-116.998;2022-12-05T07:59:10;2.80;2.80;2.60
45700;PMS5003;36277;32.852;-116.998;2022-12-05T08:01:36;3.00;3.00;2.20
45700;PMS5003;36277;32.852;-116.998;2022-12-05T08:04:03;2.20;2.20;2.00
45700;PMS5003;36277;32.852;-116.998;2022-12-05T08:06:29;3.00;3.00;3.00
45700;PMS5003;36277;32.852;-116.998;2022-12-05T08:08:58;2.60;2.60;2.00
45700;PMS5003;36277;32.852;-116.998;2022-12-05T08:11:26;2.40;2.40;2.20
45700;PMS5003;36277;32.852;-116.998;2022-12-05T08:13:54;4.00;4.00;3.80
45700;PMS5003;36277;32.852;-116.998;2022-12-05T08:16:22;2.20;2.20;2.00
45700;PMS5003;36277;32.852;-116.998;2022-12-05T08:18:53;2.20;2.20;2.00
45700;PMS5003;36277;32.852;-116.998;2022-12-05T08:21:23;3.00;3.00;3.00
45700;PMS5003;36277;32.852;-116.998;2022-12-05T08:23:50;1.00;1.00;1.00
45700;PMS5003;36277;32.852;-116.998;2022-12-05T08:26:21;2.00;2.00;2.00
45700;PMS5003;36277;32.852;-116.998;2022-12-05T08:28:52;1.20;1.20;1.00
45700;PMS5003;36277;32.852;-116.998;2022-12-05T08:31:21;1.40;1.40;1.40
45700;PMS5003;36277;32.852;-116.998;2022-12-05T08:33:49;1.00;1.00;1.00
45700;PMS5003;36277;32.852;-116.998;2022-12-05T08:36:17;1.00;1.00;0.20
45700;PMS5003;36277;32.852;-116.998;2022-12-05T08:38:44;2.80;2.80;2.80
45700;PMS5003;36277;32.852;-116.998;2022-12-05T08:41:12;2.80;2.80;2.00
45700;PMS5003;36277;32.852;-116.998;2022-12-05T08:43:40;2.60;2.60;2.60
45700;PMS5003;36277;32.852;-116.998;2022-12-05T08:46:07;2.40;2.40;2.00
45700;PMS5003;36277;32.852;-116.998;2022-12-05T08:48:34;3.00;3.00;2.00
45700;PMS5003;36277;32.852;-116.998;2022-12-05T08:51:07;2.20;2.20;2.00
45700;PMS5003;36277;32.852;-116.998;2022-12-05T08:53:35;3.00;3.00;3.00
45700;PMS5003;36277;32.852;-116.998;2022-12-05T08:56:02;1.40;1.40;1.00
45700;PMS5003;36277;32.852;-116.998;2022-12-05T08:58:30;3.00;3.00;2.60
45700;PMS5003;36277;32.852;-116.998;2022-12-05T09:01:03;1.80;1.80;1.80
45700;PMS5003;36277;32.852;-116.998;2022-12-05T09:03:31;3.00;3.00;2.00
45700;PMS5003;36277;32.852;-116.998;2022-12-05T09:06:10;3.00;3.00;3.00
45700;PMS5003;36277;32.852;-116.998;2022-12-05T09:08:39;3.60;3.60;2.40
45700;PMS5003;36277;32.852;-116.998;2022-12-05T09:11:12;3.00;3.00;3.00
45700;PMS5003;36277;32.852;-116.998;2022-12-05T09:13:40;1.20;1.20;1.00
45700;PMS5003;36277;32.852;-116.998;2022-12-05T09:16:11;3.60;3.60;3.00
45700;PMS5003;36277;32.852;-116.998;2022-12-05T09:18:42;1.60;1.60;1.00
45700;PMS5003;36277;32.852;-116.998;2022-12-05T09:21:10;1.20;1.20;1.00
45700;PMS5003;36277;32.852;-116.998;2022-12-05T09:23:41;2.40;2.40;2.00
45700;PMS5003;36277;32.852;-116.998;2022-12-05T09:26:08;2.60;2.60;2.00
45700;PMS5003;36277;32.852;-116.998;2022-12-05T09:28:37;0.80;0.80;0.00
45700;PMS5003;36277;32.852;-116.998;2022-12-05T09:31:05;2.00;2.00;2.00
45700;PMS5003;36277;32.852;-116.998;2022-12-05T09:33:35;2.60;2.60;2.00
45700;PMS5003;36277;32.852;-116.998;2022-12-05T09:36:03;3.40;3.40;3.20
45700;PMS5003;36277;32.852;-116.998;2022-12-05T09:38:33;3.00;3.00;3.00
45700;PMS5003;36277;32.852;-116.998;2022-12-05T09:41:25;2.80;2.80;2.00
45700;PMS5003;36277;32.852;-116.998;2022-12-05T09:47:12;2.00;2.00;2.00
45700;PMS5003;36277;32.852;-116.998;2022-12-05T09:50:00;3.00;3.00;2.60
45700;PMS5003;36277;32.852;-116.998;2022-12-05T09:53:03;3.40;3.40;2.60
45700;PMS5003;36277;32.852;-116.998;2022-12-05T09:55:50;1.60;1.60;1.00
45700;PMS5003;36277;32.852;-116.998;2022-12-05T09:58:46;3.20;3.20;3.00
45700;PMS5003;36277;32.852;-116.998;2022-12-05T10:06:28;2.60;2.60;2.60
45700;PMS5003;36277;32.852;-116.998;2022-12-05T10:18:15;3.20;3.20;3.00
45700;PMS5003;36277;32.852;-116.998;2022-12-05T10:23:41;3.00;3.00;2.00
45700;PMS5003;36277;32.852;-116.998;2022-12-05T10:26:44;2.00;2.00;2.00
45700;PMS5003;36277;32.852;-116.998;2022-12-05T10:31:49;2.80;2.80;2.60
45700;PMS5003;36277;32.852;-116.998;2022-12-05T10:34:27;1.00;1.00;0.20
45700;PMS5003;36277;32.852;-116.998;2022-12-05T10:37:20;2.60;2.60;2.40
45700;PMS5003;36277;32.852;-116.998;2022-12-05T10:39:48;2.60;2.60;2.00
45700;PMS5003;36277;32.852;-116.998;2022-12-05T10:44:49;2.80;2.80;2.00
45700;PMS5003;36277;32.852;-116.998;2022-12-05T10:47:22;0.60;0.60;0.60
45700;PMS5003;36277;32.852;-116.998;2022-12-05T10:49:49;3.00;3.00;2.20
45700;PMS5003;36277;32.852;-116.998;2022-12-05T10:52:16;2.00;2.00;2.00
45700;PMS5003;36277;32.852;-116.998;2022-12-05T10:54:46;2.00;2.00;2.00
45700;PMS5003;36277;32.852;-116.998;2022-12-05T10:57:20;1.00;1.00;0.60
45700;PMS5003;36277;32.852;-116.998;2022-12-05T10:59:51;2.00;2.00;1.60
45700;PMS5003;36277;32.852;-116.998;2022-12-05T11:02:23;2.00;2.00;2.00
45700;PMS5003;36277;32.852;-116.998;2022-12-05T11:04:52;1.40;1.40;1.00
45700;PMS5003;36277;32.852;-116.998;2022-12-05T11:07:30;2.60;2.60;2.00
45700;PMS5003;36277;32.852;-116.998;2022-12-05T11:10:24;1.00;1.00;1.00
45700;PMS5003;36277;32.852;-116.998;2022-12-05T11:12:54;2.00;2.00;2.00
45700;PMS5003;36277;32.852;-116.998;2022-12-05T11:15:23;2.00;2.00;1.00
45700;PMS5003;36277;32.852;-116.998;2022-12-05T11:17:53;2.00;2.00;2.00
45700;PMS5003;36277;32.852;-116.998;2022-12-05T11:22:47;2.00;2.00;2.00
45700;PMS5003;36277;32.852;-116.998;2022-12-05T11:27:50;2.00;2.00;1.60
45700;PMS5003;36277;32.852;-116.998;2022-12-05T11:30:17;2.00;2.00;1.80
45700;PMS5003;36277;32.852;-116.998;2022-12-05T11:32:45;1.20;1.20;1.00
45700;PMS5003;36277;32.852;-116.998;2022-12-05T11:48:26;2.80;2.80;2.00
45700;PMS5003;36277;32.852;-116.998;2022-12-05T11:56:58;2.00;2.00;1.00
45700;PMS5003;36277;32.852;-116.998;2022-12-05T12:08:02;2.00;2.00;1.80
45700;PMS5003;36277;32.852;-116.998;2022-12-05T12:10:52;1.00;1.00;1.00
45700;PMS5003;36277;32.852;-116.998;2022-12-05T12:16:16;1.40;1.40;1.00
45700;PMS5003;36277;32.852;-116.998;2022-12-05T12:33:45;1.20;1.20;1.20
45700;PMS5003;36277;32.852;-116.998;2022-12-05T12:41:41;1.40;1.40;1.00
45700;PMS5003;36277;32.852;-116.998;2022-12-05T12:47:08;1.00;1.00;1.00
45700;PMS5003;36277;32.852;-116.998;2022-12-05T12:52:21;1.20;1.20;1.00
45700;PMS5003;36277;32.852;-116.998;2022-12-05T13:00:22;2.00;2.00;1.40
45700;PMS5003;36277;32.852;-116.998;2022-12-05T13:10:42;1.00;1.00;1.00
45700;PMS5003;36277;32.852;-116.998;2022-12-05T13:13:12;0.00;0.00;0.00
45700;PMS5003;36277;32.852;-116.998;2022-12-05T13:15:52;1.80;1.80;1.80
45700;PMS5003;36277;32.852;-116.998;2022-12-05T13:18:22;1.20;1.20;1.00
45700;PMS5003;36277;32.852;-116.998;2022-12-05T13:21:00;1.00;1.00;1.00
45700;PMS5003;36277;32.852;-116.998;2022-12-05T13:23:35;2.00;2.00;1.40
45700;PMS5003;36277;32.852;-116.998;2022-12-05T13:26:09;1.00;1.00;1.00
45700;PMS5003;36277;32.852;-116.998;2022-12-05T13:31:08;1.40;1.40;1.40
45700;PMS5003;36277;32.852;-116.998;2022-12-05T13:33:45;1.00;1.00;1.00
45700;PMS5003;36277;32.852;-116.998;2022-12-05T13:36:17;0.60;0.60;0.20
45700;PMS5003;36277;32.852;-116.998;2022-12-05T13:39:03;1.00;1.00;1.00
45700;PMS5003;36277;32.852;-116.998;2022-12-05T13:41:51;1.00;1.00;1.00
45700;PMS5003;36277;32.852;-116.998;2022-12-05T13:44:43;1.00;1.00;1.00
45700;PMS5003;36277;32.852;-116.998;2022-12-05T13:50:01;2.00;2.00;2.00
45700;PMS5003;36277;32.852;-116.998;2022-12-05T13:52:57;1.60;1.60;1.60
45700;PMS5003;36277;32.852;-116.998;2022-12-05T13:55:36;0.20;0.20;0.20
45700;PMS5003;36277;32.852;-116.998;2022-12-05T14:00:45;2.00;2.00;2.00
45700;PMS5003;36277;32.852;-116.998;2022-12-05T14:03:54;3.00;3.00;3.00
45700;PMS5003;36277;32.852;-116.998;2022-12-05T14:06:00;2.00;2.00;1.40
45700;PMS5003;36277;32.852;-116.998;2022-12-05T14:15:50;1.00;1.00;1.00
45700;PMS5003;36277;32.852;-116.998;2022-12-05T14:18:31;1.20;1.20;1.20
45700;PMS5003;36277;32.852;-116.998;2022-12-05T14:21:18;1.20;1.20;1.20
45700;PMS5003;36277;32.852;-116.998;2022-12-05T14:32:36;1.00;1.00;1.00
45700;PMS5003;36277;32.852;-116.998;2022-12-05T14:35:11;1.20;1.20;1.00
45700;PMS5003;36277;32.852;-116.998;2022-12-05T14:45:43;2.00;2.00;2.00
45700;PMS5003;36277;32.852;-116.998;2022-12-05T14:50:52;2.00;2.00;1.20
45700;PMS5003;36277;32.852;-116.998;2022-12-05T14:55:53;1.00;1.00;1.00
45700;PMS5003;36277;32.852;-116.998;2022-12-05T14:58:36;1.40;1.40;1.40
45700;PMS5003;36277;32.852;-116.998;2022-12-05T15:03:49;2.00;2.00;1.80
45700;PMS5003;36277;32.852;-116.998;2022-12-05T15:06:24;1.20;1.20;1.00
45700;PMS5003;36277;32.852;-116.998;2022-12-05T15:08:52;1.80;1.80;1.00
45700;PMS5003;36277;32.852;-116.998;2022-12-05T15:11:22;0.80;0.80;0.80
45700;PMS5003;36277;32.852;-116.998;2022-12-05T15:13:57;1.00;1.00;1.00
45700;PMS5003;36277;32.852;-116.998;2022-12-05T15:16:30;1.00;1.00;1.00
45700;PMS5003;36277;32.852;-116.998;2022-12-05T15:19:03;1.00;1.00;1.00
45700;PMS5003;36277;32.852;-116.998;2022-12-05T15:21:40;1.00;1.00;1.00
45700;PMS5003;36277;32.852;-116.998;2022-12-05T15:24:15;2.00;2.00;1.00
45700;PMS5003;36277;32.852;-116.998;2022-12-05T15:26:52;1.20;1.20;1.00
45700;PMS5003;36277;32.852;-116.998;2022-12-05T15:31:50;2.00;2.00;2.00
45700;PMS5003;36277;32.852;-116.998;2022-12-05T15:37:17;1.00;1.00;1.00
45700;PMS5003;36277;32.852;-116.998;2022-12-05T15:39:51;2.20;2.20;2.00
45700;PMS5003;36277;32.852;-116.998;2022-12-05T15:42:28;2.00;2.00;2.00
45700;PMS5003;36277;32.852;-116.998;2022-12-05T15:47:48;3.00;3.00;2.60
45700;PMS5003;36277;32.852;-116.998;2022-12-05T15:53:09;3.80;3.80;3.00
45700;PMS5003;36277;32.852;-116.998;2022-12-05T15:59:22;3.00;3.00;3.00
45700;PMS5003;36277;32.852;-116.998;2022-12-05T16:01:40;4.00;4.00;3.80
45700;PMS5003;36277;32.852;-116.998;2022-12-05T16:06:50;4.20;4.20;3.80
45700;PMS5003;36277;32.852;-116.998;2022-12-05T16:09:20;3.00;3.00;3.00
45700;PMS5003;36277;32.852;-116.998;2022-12-05T16:12:04;3.00;3.00;2.80
45700;PMS5003;36277;32.852;-116.998;2022-12-05T16:14:40;5.00;5.00;4.00
45700;PMS5003;36277;32.852;-116.998;2022-12-05T16:17:09;4.00;4.00;4.00
45700;PMS5003;36277;32.852;-116.998;2022-12-05T16:19:40;4.00;4.00;3.60
45700;PMS5003;36277;32.852;-116.998;2022-12-05T16:24:40;4.00;4.00;3.60
45700;PMS5003;36277;32.852;-116.998;2022-12-05T16:27:25;4.80;4.80;3.80
45700;PMS5003;36277;32.852;-116.998;2022-12-05T16:32:44;2.00;2.00;2.00
45700;PMS5003;36277;32.852;-116.998;2022-12-05T16:40:57;4.00;4.00;3.60
45700;PMS5003;36277;32.852;-116.998;2022-12-05T16:48:39;4.00;4.00;3.20
45700;PMS5003;36277;32.852;-116.998;2022-12-05T16:53:49;5.00;5.00;4.20
45700;PMS5003;36277;32.852;-116.998;2022-12-05T16:56:20;5.00;5.00;4.00
45700;PMS5003;36277;32.852;-116.998;2022-12-05T16:58:49;4.00;4.00;3.80
45700;PMS5003;36277;32.852;-116.998;2022-12-05T17:01:20;4.00;4.00;3.20
45700;PMS5003;36277;32.852;-116.998;2022-12-05T17:03:50;5.00;5.00;4.00
45700;PMS5003;36277;32.852;-116.998;2022-12-05T17:06:18;3.00;3.00;3.00
45700;PMS5003;36277;32.852;-116.998;2022-12-05T17:08:47;3.60;3.60;3.20
45700;PMS5003;36277;32.852;-116.998;2022-12-05T17:13:57;4.00;4.00;3.00
45700;PMS5003;36277;32.852;-116.998;2022-12-05T17:16:23;2.00;2.00;2.00
45700;PMS5003;36277;32.852;-116.998;2022-12-05T17:18:53;3.00;3.00;2.00
45700;PMS5003;36277;32.852;-116.998;2022-12-05T17:21:23;3.60;3.60;3.00
45700;PMS5003;36277;32.852;-116.998;2022-12-05T17:23:54;3.00;3.00;2.40
45700;PMS5003;36277;32.852;-116.998;2022-12-05T17:26:20;2.00;2.00;2.00
45700;PMS5003;36277;32.852;-116.998;2022-12-05T17:28:47;3.00;3.00;3.00
45700;PMS5003;36277;32.852;-116.998;2022-12-05T17:31:15;2.00;2.00;2.00
45700;PMS5003;36277;32.852;-116.998;2022-12-05T17:33:46;3.00;3.00;2.60
45700;PMS5003;36277;32.852;-116.998;2022-12-05T17:36:14;1.00;1.00;0.60
45700;PMS5003;36277;32.852;-116.998;2022-12-05T17:38:40;1.00;1.00;1.00
45700;PMS5003;36277;32.852;-116.998;2022-12-05T17:41:08;3.00;3.00;2.60
45700;PMS5003;36277;32.852;-116.998;2022-12-05T17:43:40;2.20;2.20;2.00
45700;PMS5003;36277;32.852;-116.998;2022-12-05T17:46:07;4.00;3.00;3.00
45700;PMS5003;36277;32.852;-116.998;2022-12-05T17:48:34;23.50;23.50;19.25
45700;PMS5003;36277;32.852;-116.998;2022-12-05T17:51:00;37.50;34.50;26.50
45700;PMS5003;36277;32.852;-116.998;2022-12-05T17:53:28;78.00;73.40;53.40
45700;PMS5003;36277;32.852;-116.998;2022-12-05T17:55:55;134.00;132.00;92.00
45700;PMS5003;36277;32.852;-116.998;2022-12-05T17:58:21;294.20;278.00;173.60
45700;PMS5003;36277;32.852;-116.998;2022-12-05T18:00:47;460.17;442.17;226.17
45700;PMS5003;36277;32.852;-116.998;2022-12-05T18:03:14;648.50;568.17;241.33